createdAt,value
2018-10-11T00:00:02.120Z,4.84
2018-10-11T00:02:37.152Z,5.04
2018-10-11T00:05:11.790Z,4.73
2018-10-11T00:07:49.409Z,4.77
2018-10-11T00:10:24.869Z,4.43
2018-10-11T00:12:59.751Z,4.04
2018-10-11T00:15:34.479Z,3.97
2018-10-11T00:18:09.350Z,3.94
2018-10-11T00:20:44.281Z,3.92
2018-10-11T00:23:19.543Z,4.24
2018-10-11T00:25:54.377Z,3.69
2018-10-11T00:28:29.341Z,3.79
2018-10-11T00:31:04.505Z,4.05
2018-10-11T00:33:39.542Z,4.33
2018-10-11T00:36:14.558Z,4.62
2018-10-11T00:38:49.264Z,4.81
2018-10-11T00:41:24.182Z,4.90
2018-10-11T00:43:59.143Z,4.92
2018-10-11T00:46:33.915Z,5.06
2018-10-11T00:49:08.897Z,5.15
2018-10-11T00:51:43.769Z,5.10
2018-10-11T00:54:18.949Z,4.91
2018-10-11T00:56:53.815Z,4.69
2018-10-11T00:59:28.815Z,4.43
2018-10-11T01:02:04.031Z,4.39
2018-10-11T01:04:38.956Z,3.46
2018-10-11T01:07:13.712Z,2.99
2018-10-11T01:09:49.290Z,2.95
2018-10-11T01:12:24.278Z,3.19
2018-10-11T01:14:59.073Z,3.37
2018-10-11T01:17:33.799Z,3.43
2018-10-11T01:20:08.611Z,3.50
2018-10-11T01:22:43.945Z,3.33
2018-10-11T01:25:18.809Z,3.18
2018-10-11T01:27:53.708Z,3.36
2018-10-11T01:30:28.415Z,3.51
2018-10-11T01:33:03.173Z,3.31
2018-10-11T01:35:38.201Z,3.30
2018-10-11T01:38:12.947Z,3.35
2018-10-11T01:40:48.126Z,3.62
2018-10-11T01:43:22.888Z,3.83
2018-10-11T01:45:57.729Z,4.04
2018-10-11T01:48:32.992Z,3.66
2018-10-11T01:51:07.834Z,3.42
2018-10-11T01:53:42.646Z,3.73
2018-10-11T01:56:17.424Z,3.82
2018-10-11T01:58:52.277Z,3.56
2018-10-11T02:01:27.084Z,3.32
2018-10-11T02:04:02.003Z,3.11
2018-10-11T02:06:36.742Z,3.37
2018-10-11T02:09:11.597Z,3.58
2018-10-11T02:11:46.714Z,3.51
2018-10-11T02:14:21.532Z,3.21
2018-10-11T02:16:56.271Z,3.47
2018-10-11T02:19:30.956Z,3.76
2018-10-11T02:22:05.732Z,3.64
2018-10-11T02:24:40.642Z,3.17
2018-10-11T02:27:15.444Z,3.00
2018-10-11T02:29:50.345Z,2.83
2018-10-11T02:32:25.402Z,2.55
2018-10-11T02:35:00.096Z,2.31
2018-10-11T02:37:34.803Z,2.19
2018-10-11T02:40:09.656Z,2.11
2018-10-11T02:42:44.655Z,2.53
2018-10-11T02:45:19.625Z,2.81
2018-10-11T02:47:54.335Z,3.30
2018-10-11T02:50:29.216Z,3.47
2018-10-11T02:53:03.954Z,3.21
2018-10-11T02:55:38.968Z,3.16
2018-10-11T02:58:19.408Z,3.53
2018-10-11T03:00:54.396Z,3.59
2018-10-11T03:03:29.673Z,3.08
2018-10-11T03:06:04.681Z,3.18
2018-10-11T03:08:39.537Z,2.95
2018-10-11T03:11:14.545Z,2.52
2018-10-11T03:13:49.511Z,2.55
2018-10-11T03:16:24.287Z,2.97
2018-10-11T03:18:59.177Z,3.26
2018-10-11T03:21:34.039Z,3.10
2018-10-11T03:24:08.944Z,3.33
2018-10-11T03:26:44.023Z,3.57
2018-10-11T03:29:19.009Z,3.72
2018-10-11T03:31:53.953Z,3.81
2018-10-11T03:34:29.759Z,3.77
2018-10-11T03:37:04.529Z,3.64
2018-10-11T03:39:39.253Z,3.45
2018-10-11T03:42:14.134Z,3.00
2018-10-11T03:44:48.999Z,3.21
2018-10-11T03:47:23.887Z,2.97
2018-10-11T03:49:58.697Z,2.82
2018-10-11T03:52:33.676Z,2.64
2018-10-11T03:55:08.680Z,2.29
2018-10-11T03:57:43.849Z,1.85
2018-10-11T04:00:18.790Z,1.59
2018-10-11T04:02:53.623Z,1.52
2018-10-11T04:05:28.627Z,1.53
2018-10-11T04:08:03.545Z,1.41
2018-10-11T04:10:38.372Z,1.54
2018-10-11T04:13:13.805Z,1.65
2018-10-11T04:15:48.740Z,1.65
2018-10-11T04:18:23.593Z,2.03
2018-10-11T04:20:58.288Z,2.37
2018-10-11T04:23:33.064Z,2.01
2018-10-11T04:26:07.888Z,1.85
2018-10-11T04:28:42.773Z,1.69
2018-10-11T04:31:17.581Z,2.09
2018-10-11T04:33:52.488Z,2.38
2018-10-11T04:36:27.208Z,2.56
2018-10-11T04:39:02.089Z,2.88
2018-10-11T04:41:36.815Z,3.07
2018-10-11T04:44:11.590Z,2.90
2018-10-11T04:46:46.607Z,2.58
2018-10-11T04:49:21.376Z,1.93
2018-10-11T04:51:56.293Z,1.73
2018-10-11T04:54:31.019Z,1.96
2018-10-11T04:57:05.853Z,2.11
2018-10-11T04:59:40.983Z,1.96
2018-10-11T05:02:16.235Z,1.91
2018-10-11T05:04:51.292Z,1.52
2018-10-11T05:07:26.581Z,1.40
2018-10-11T05:10:01.376Z,1.60
2018-10-11T05:12:36.296Z,1.83
2018-10-11T05:15:11.256Z,2.31
2018-10-11T05:17:46.633Z,2.82
2018-10-11T05:20:21.905Z,3.03
2018-10-11T05:22:56.802Z,3.21
2018-10-11T05:25:31.755Z,3.68
2018-10-11T05:28:06.582Z,3.87
2018-10-11T05:30:43.330Z,3.78
2018-10-11T05:33:18.320Z,3.54
2018-10-11T05:35:53.417Z,3.49
2018-10-11T05:38:28.318Z,3.76
2018-10-11T05:41:03.232Z,4.22
2018-10-11T05:43:38.330Z,4.73
2018-10-11T05:46:14.225Z,4.95
2018-10-11T05:48:49.243Z,5.28
2018-10-11T05:51:24.045Z,5.79
2018-10-11T05:53:59.671Z,6.06
2018-10-11T05:56:35.512Z,6.27
2018-10-11T05:59:11.222Z,6.44
2018-10-11T06:01:46.055Z,6.58
2018-10-11T06:04:21.299Z,6.83
2018-10-11T06:06:56.544Z,7.04
2018-10-11T06:09:31.492Z,7.33
2018-10-11T06:12:06.311Z,7.59
2018-10-11T06:14:41.538Z,7.45
2018-10-11T06:17:16.311Z,7.47
2018-10-11T06:19:51.556Z,7.58
2018-10-11T06:22:26.508Z,7.61
2018-10-11T06:25:01.537Z,7.95
2018-10-11T06:27:36.563Z,7.98
2018-10-11T06:30:13.161Z,7.74
2018-10-11T06:32:48.325Z,8.04
2018-10-11T06:35:23.773Z,8.24
2018-10-11T06:37:59.215Z,8.25
2018-10-11T06:40:34.485Z,8.66
2018-10-11T06:43:09.466Z,9.00
2018-10-11T06:45:44.640Z,9.27
2018-10-11T06:48:19.379Z,9.38
2018-10-11T06:50:57.017Z,9.68
2018-10-11T06:53:32.026Z,9.84
2018-10-11T06:56:07.173Z,10.04
2018-10-11T06:58:42.227Z,9.91
2018-10-11T07:01:17.068Z,10.29
2018-10-11T07:03:51.924Z,10.65
2018-10-11T07:06:22.642Z,10.88
2018-10-11T07:08:53.490Z,11.11
2018-10-11T07:11:24.369Z,11.09
2018-10-11T07:13:55.179Z,11.29
2018-10-11T07:16:26.324Z,11.50
2018-10-11T07:18:57.064Z,11.56
2018-10-11T07:21:28.063Z,11.52
2018-10-11T07:23:58.836Z,12.00
2018-10-11T07:26:29.615Z,12.20
2018-10-11T07:29:00.464Z,12.39
2018-10-11T07:32:55.658Z,12.18
2018-10-11T07:35:26.604Z,12.35
2018-10-11T07:37:57.608Z,12.80
2018-10-11T07:40:28.451Z,12.98
2018-10-11T07:42:59.538Z,13.16
2018-10-11T07:45:30.338Z,13.53
2018-10-11T07:48:01.254Z,13.41
2018-10-11T07:50:32.077Z,13.76
2018-10-11T07:53:02.944Z,13.88
2018-10-11T07:55:33.764Z,14.15
2018-10-11T07:58:04.574Z,14.36
2018-10-11T08:00:35.367Z,14.45
2018-10-11T08:03:06.168Z,14.71
2018-10-11T08:05:37.053Z,14.81
2018-10-11T08:08:08.040Z,15.09
2018-10-11T08:10:40.368Z,15.22
2018-10-11T08:13:12.399Z,15.11
2018-10-11T08:15:43.196Z,15.13
2018-10-11T08:18:13.984Z,15.26
2018-10-11T08:20:44.736Z,15.49
2018-10-11T08:23:18.926Z,15.53
2018-10-11T08:25:49.939Z,15.57
2018-10-11T08:28:21.167Z,15.79
2018-10-11T08:30:51.923Z,15.74
2018-10-11T08:33:23.227Z,16.04
2018-10-11T08:35:53.982Z,16.28
2018-10-11T08:38:24.931Z,16.41
2018-10-11T08:40:55.944Z,16.78
2018-10-11T08:43:27.146Z,16.98
2018-10-11T08:45:58.132Z,17.03
2018-10-11T08:48:28.915Z,17.04
2018-10-11T08:51:00.069Z,16.86
2018-10-11T08:53:31.065Z,16.83
2018-10-11T08:56:01.959Z,17.08
2018-10-11T08:58:32.932Z,17.25
2018-10-11T09:01:03.857Z,17.44
2018-10-11T09:03:34.955Z,17.40
2018-10-11T09:06:06.462Z,17.22
2018-10-11T09:08:37.322Z,17.48
2018-10-11T09:11:08.133Z,17.68
2018-10-11T09:13:39.213Z,17.96
2018-10-11T09:16:10.044Z,17.75
2018-10-11T09:18:40.825Z,17.64
2018-10-11T09:21:11.657Z,17.94
2018-10-11T09:23:42.667Z,17.61
2018-10-11T09:26:13.552Z,17.53
2018-10-11T09:28:44.365Z,17.48
2018-10-11T09:31:15.127Z,17.66
2018-10-11T09:33:45.958Z,18.19
2018-10-11T09:36:16.793Z,18.61
2018-10-11T09:38:47.969Z,18.61
2018-10-11T09:41:18.801Z,18.49
2018-10-11T09:43:49.638Z,18.68
2018-10-11T09:46:20.503Z,18.98
2018-10-11T09:48:51.456Z,18.76
2018-10-11T09:51:22.553Z,18.92
2018-10-11T09:53:53.449Z,19.16
2018-10-11T09:57:31.562Z,19.17
2018-10-11T10:00:03.645Z,18.96
2018-10-11T10:02:34.421Z,18.93
2018-10-11T10:05:05.317Z,19.08
2018-10-11T10:07:36.112Z,18.99
2018-10-11T10:10:07.443Z,19.11
2018-10-11T10:12:38.292Z,19.36
2018-10-11T10:15:09.221Z,19.65
2018-10-11T10:17:39.992Z,19.85
2018-10-11T10:20:10.909Z,19.93
2018-10-11T10:22:41.733Z,19.68
2018-10-11T10:25:12.658Z,19.76
2018-10-11T10:27:43.416Z,20.31
2018-10-11T10:30:19.339Z,20.46
2018-10-11T10:32:50.168Z,20.21
2018-10-11T10:35:21.025Z,20.20
2018-10-11T10:37:51.824Z,20.46
2018-10-11T10:40:22.667Z,20.87
2018-10-11T10:42:53.425Z,21.04
2018-10-11T10:45:24.274Z,21.57
2018-10-11T10:47:57.692Z,21.74
2018-10-11T10:50:28.552Z,20.93
2018-10-11T10:52:59.325Z,21.40
2018-10-11T11:02:32.898Z,21.65
2018-10-11T11:05:03.690Z,21.80
2018-10-11T11:07:34.606Z,21.83
2018-10-11T11:10:05.745Z,22.02
2018-10-11T11:12:36.677Z,22.45
2018-10-11T11:15:07.473Z,22.22
2018-10-11T11:17:38.305Z,21.99
2018-10-11T11:20:09.113Z,21.04
2018-10-11T11:22:39.912Z,20.50
2018-10-11T11:25:10.698Z,20.98
2018-10-11T11:27:41.974Z,21.19
2018-10-11T11:30:12.762Z,21.00
2018-10-11T11:32:43.645Z,20.61
2018-10-11T11:35:14.420Z,20.70
2018-10-11T11:37:45.213Z,20.39
2018-10-11T11:40:16.043Z,20.32
2018-10-11T11:42:46.941Z,19.98
2018-10-11T11:45:17.769Z,19.78
2018-10-11T11:47:48.652Z,19.79
2018-10-11T11:50:22.826Z,20.05
2018-10-11T11:52:53.955Z,19.89
2018-10-11T11:55:24.736Z,19.86
2018-10-11T11:57:55.610Z,19.51
2018-10-11T12:00:27.475Z,19.72
2018-10-11T12:03:00.178Z,19.62
2018-10-11T12:05:31.496Z,19.08
2018-10-11T12:08:02.372Z,18.67
2018-10-11T12:10:33.204Z,18.59
2018-10-11T12:13:09.341Z,18.41
2018-10-11T12:15:41.291Z,18.40
2018-10-11T12:18:12.401Z,18.83
2018-10-11T12:20:43.518Z,18.64
2018-10-11T12:23:14.469Z,18.39
2018-10-11T12:25:45.263Z,18.11
2018-10-11T12:28:22.207Z,18.05
2018-10-11T12:30:53.141Z,17.94
2018-10-11T12:33:23.985Z,17.95
2018-10-11T12:35:55.098Z,17.72
2018-10-11T12:38:25.935Z,17.76
2018-10-11T12:40:56.687Z,17.85
2018-10-11T12:43:27.566Z,17.78
2018-10-11T12:45:58.415Z,17.85
2018-10-11T12:48:29.209Z,17.63
2018-10-11T12:51:00.045Z,17.69
2018-10-11T12:53:30.944Z,17.76
2018-10-11T12:56:02.112Z,17.87
2018-10-11T12:58:32.941Z,18.03
2018-10-11T13:01:03.910Z,18.16
2018-10-11T13:03:35.204Z,18.36
2018-10-11T13:06:06.435Z,18.22
2018-10-11T13:08:37.279Z,18.20
2018-10-11T13:11:08.161Z,18.05
2018-10-11T13:13:39.840Z,18.15
2018-10-11T13:16:10.253Z,18.10
2018-10-11T13:18:41.045Z,18.00
2018-10-11T13:21:12.113Z,17.60
2018-10-11T13:23:42.993Z,17.75
2018-10-11T13:26:13.756Z,17.92
2018-10-11T13:28:44.945Z,17.82
2018-10-11T13:31:16.149Z,17.97
2018-10-11T13:33:47.621Z,17.96
2018-10-11T13:36:17.973Z,17.81
2018-10-11T13:38:48.805Z,17.60
2018-10-11T13:41:19.750Z,17.92
2018-10-11T13:43:51.145Z,17.99
2018-10-11T13:46:22.009Z,18.05
2018-10-11T13:48:52.836Z,17.85
2018-10-11T13:51:23.662Z,17.71
2018-10-11T13:53:58.397Z,17.52
2018-10-11T13:56:26.043Z,17.39
2018-10-11T13:58:56.999Z,17.16
2018-10-11T14:01:27.913Z,17.28
2018-10-11T14:03:58.732Z,17.27
2018-10-11T14:06:29.554Z,17.29
2018-10-11T14:09:00.437Z,17.49
2018-10-11T14:11:31.197Z,17.72
2018-10-11T14:14:02.156Z,18.09
2018-10-11T14:16:33.371Z,18.11
2018-10-11T14:19:04.326Z,18.28
2018-10-11T14:21:35.104Z,18.15
2018-10-11T14:24:06.031Z,18.13
2018-10-11T14:26:37.052Z,17.99
2018-10-11T14:29:07.990Z,17.96
2018-10-11T14:31:38.739Z,17.62
2018-10-11T14:34:09.989Z,17.48
2018-10-11T14:36:40.763Z,17.50
2018-10-11T14:39:11.739Z,17.33
2018-10-11T14:41:43.106Z,17.16
2018-10-11T14:44:13.978Z,16.95
2018-10-11T14:46:44.821Z,16.71
2018-10-11T14:49:15.702Z,16.71
2018-10-11T14:51:48.723Z,16.76
2018-10-11T14:54:17.576Z,16.71
2018-10-11T14:56:48.377Z,16.58
2018-10-11T14:59:19.290Z,16.57
2018-10-11T15:01:50.320Z,16.56
2018-10-11T15:04:21.136Z,16.56
2018-10-11T15:06:51.870Z,16.59
2018-10-11T15:09:22.714Z,16.60
2018-10-11T15:11:53.552Z,16.57
2018-10-11T15:14:25.001Z,16.51
2018-10-11T15:16:56.300Z,16.44
2018-10-11T15:19:27.366Z,16.46
2018-10-11T15:21:58.150Z,16.37
2018-10-11T15:24:29.028Z,16.16
2018-10-11T15:26:59.850Z,16.07
2018-10-11T15:29:31.150Z,16.03
2018-10-11T15:32:02.213Z,16.06
2018-10-11T15:34:33.053Z,15.96
2018-10-11T15:37:03.857Z,15.93
2018-10-11T15:39:34.741Z,15.78
2018-10-11T15:42:05.505Z,15.78
2018-10-11T15:44:36.387Z,15.80
2018-10-11T15:47:07.245Z,15.73
2018-10-11T15:49:38.077Z,15.70
2018-10-11T15:52:09.194Z,15.64
2018-10-11T15:54:40.234Z,15.56
2018-10-11T15:57:11.606Z,15.49
2018-10-11T15:59:42.658Z,15.43
2018-10-11T16:02:13.434Z,15.48
2018-10-11T16:04:44.225Z,15.39
2018-10-11T16:07:15.026Z,15.40
2018-10-11T16:09:45.893Z,15.31
2018-10-11T16:12:16.670Z,15.30
2018-10-11T16:14:47.513Z,15.37
2018-10-11T16:17:18.362Z,15.34
2018-10-11T16:19:49.157Z,15.28
2018-10-11T16:22:20.168Z,15.28
2018-10-11T16:24:51.139Z,15.37
2018-10-11T16:27:23.033Z,15.34
2018-10-11T16:29:54.014Z,15.34
2018-10-11T16:32:24.807Z,15.19
2018-10-11T16:34:55.659Z,15.51
2018-10-11T16:37:26.520Z,15.41
2018-10-11T16:39:57.381Z,15.36
2018-10-11T16:42:28.167Z,15.18
2018-10-11T16:44:59.091Z,15.09
2018-10-11T16:47:29.875Z,14.92
2018-10-11T16:50:00.662Z,15.16
2018-10-11T16:52:31.476Z,15.13
2018-10-11T16:55:02.246Z,14.85
2018-10-11T16:57:33.067Z,14.88
2018-10-11T17:00:03.969Z,14.86
2018-10-11T17:02:34.739Z,14.83
2018-10-11T17:05:05.612Z,14.84
2018-10-11T17:07:36.412Z,14.86
2018-10-11T17:10:07.963Z,14.92
2018-10-11T17:12:38.821Z,15.06
2018-10-11T17:15:10.013Z,14.95
2018-10-11T17:17:41.305Z,14.87
2018-10-11T17:20:12.160Z,14.80
2018-10-11T17:22:42.961Z,14.89
2018-10-11T17:25:13.825Z,14.95
2018-10-11T17:27:45.090Z,14.70
2018-10-11T17:30:16.186Z,14.74
2018-10-11T17:32:49.649Z,14.75
2018-10-11T17:35:20.574Z,14.68
2018-10-11T17:37:51.625Z,14.67
2018-10-11T17:40:23.615Z,14.60
2018-10-11T17:42:54.501Z,14.54
2018-10-11T17:45:25.463Z,14.31
2018-10-11T17:47:56.271Z,14.20
2018-10-11T17:50:27.219Z,14.24
2018-10-11T17:52:59.303Z,14.70
2018-10-11T17:55:30.778Z,14.82
2018-10-11T17:58:01.618Z,14.80
2018-10-11T18:00:32.641Z,14.69
2018-10-11T18:03:03.489Z,14.48
2018-10-11T18:05:34.721Z,14.49
2018-10-11T18:08:06.092Z,14.52
2018-10-11T18:10:37.197Z,14.62
2018-10-11T18:13:08.053Z,14.65
2018-10-11T18:15:39.499Z,14.40
2018-10-11T18:18:12.984Z,14.34
2018-10-11T18:20:43.869Z,14.35
2018-10-11T18:23:14.650Z,14.33
2018-10-11T18:25:45.629Z,14.29
2018-10-11T18:28:16.437Z,14.27
2018-10-11T18:30:47.797Z,14.50
2018-10-11T18:33:18.753Z,14.59
2018-10-11T18:35:49.727Z,14.52
2018-10-11T18:38:20.804Z,14.49
2018-10-11T18:40:51.906Z,14.37
2018-10-11T18:43:22.777Z,14.27
2018-10-11T18:45:54.155Z,14.21
2018-10-11T18:48:25.814Z,14.20
2018-10-11T18:50:57.338Z,14.38
2018-10-11T18:53:29.265Z,14.25
2018-10-11T18:56:00.135Z,14.28
2018-10-11T18:58:31.059Z,14.35
2018-10-11T19:01:02.166Z,14.27
2018-10-11T19:03:33.584Z,14.47
2018-10-11T19:06:04.733Z,14.21
2018-10-11T19:08:37.134Z,14.18
2018-10-11T19:11:08.334Z,14.33
2018-10-11T19:13:39.223Z,14.22
2018-10-11T19:16:10.361Z,14.16
2018-10-11T19:18:41.925Z,14.13
2018-10-11T19:21:12.833Z,14.08
2018-10-11T19:23:44.007Z,13.98
2018-10-11T19:26:15.710Z,14.22
2018-10-11T19:28:47.160Z,14.17
2018-10-11T19:31:18.461Z,14.08
2018-10-11T19:33:49.718Z,14.15
2018-10-11T19:36:21.074Z,14.19
2018-10-11T19:38:52.388Z,14.11
2018-10-11T19:41:24.730Z,14.02
2018-10-11T19:43:58.145Z,13.93
2018-10-11T19:46:31.101Z,14.15
2018-10-11T19:49:01.951Z,14.05
2018-10-11T19:51:32.824Z,13.93
2018-10-11T19:54:03.683Z,13.86
2018-10-11T19:56:34.469Z,13.93
2018-10-11T19:59:10.313Z,13.87
2018-10-11T20:01:46.242Z,13.77
2018-10-11T20:04:22.110Z,13.77
2018-10-11T20:06:57.963Z,13.70
2018-10-11T20:09:33.786Z,13.67
2018-10-11T20:12:10.346Z,13.64
2018-10-11T20:14:46.085Z,13.62
2018-10-11T20:17:22.405Z,13.63
2018-10-11T20:19:58.520Z,13.59
2018-10-11T20:22:34.809Z,13.54
2018-10-11T20:25:10.667Z,13.51
2018-10-11T20:27:46.645Z,13.44
2018-10-11T20:30:22.832Z,13.67
2018-10-11T20:32:58.887Z,13.58
2018-10-11T20:35:34.856Z,13.49
2018-10-11T20:38:16.182Z,13.54
2018-10-11T20:40:51.859Z,13.42
2018-10-11T20:43:27.731Z,13.50
2018-10-11T20:46:03.738Z,13.14
2018-10-11T20:48:39.637Z,13.10
2018-10-11T20:51:15.904Z,13.41
2018-10-11T20:53:52.021Z,13.41
2018-10-11T20:56:27.981Z,13.32
2018-10-11T20:59:03.835Z,13.26
2018-10-11T21:01:39.736Z,13.21
2018-10-11T21:04:15.727Z,13.19
2018-10-11T21:06:51.818Z,13.07
2018-10-11T21:16:24.295Z,12.73
2018-10-11T21:19:00.196Z,12.64
2018-10-11T21:21:36.208Z,12.60
2018-10-11T21:24:12.121Z,12.64
2018-10-11T21:26:48.039Z,12.60
2018-10-11T21:29:26.731Z,12.51
2018-10-11T21:32:02.644Z,12.46
2018-10-11T21:34:38.629Z,12.53
2018-10-11T21:37:14.853Z,12.41
2018-10-11T21:39:50.770Z,12.39
2018-10-11T21:42:26.648Z,12.33
2018-10-11T21:45:02.397Z,12.12
2018-10-11T21:47:38.525Z,12.12
2018-10-11T21:50:14.580Z,12.04
2018-10-11T21:52:50.547Z,11.85
2018-10-11T21:55:26.607Z,11.86
2018-10-11T21:58:02.625Z,11.92
2018-10-11T22:00:43.685Z,11.82
2018-10-11T22:03:19.624Z,11.92
2018-10-11T22:05:55.650Z,12.05
2018-10-11T22:08:31.727Z,12.18
2018-10-11T22:11:07.717Z,12.16
2018-10-11T22:13:43.697Z,12.12
2018-10-11T22:16:19.907Z,12.26
2018-10-11T22:18:55.735Z,12.22
2018-10-11T22:21:31.632Z,12.20
2018-10-11T22:24:07.786Z,12.12
2018-10-11T22:26:43.773Z,12.20
2018-10-11T22:29:19.523Z,12.04
2018-10-11T22:31:55.270Z,11.99
2018-10-11T22:34:31.167Z,11.82
2018-10-11T22:37:07.051Z,11.75
2018-10-11T22:39:43.330Z,11.75
2018-10-11T22:42:19.213Z,11.54
2018-10-11T22:44:55.178Z,11.55
2018-10-11T22:47:30.890Z,11.40
2018-10-11T22:50:07.222Z,11.33
2018-10-11T22:52:42.973Z,11.56
2018-10-11T22:55:18.845Z,11.80
2018-10-11T22:57:55.882Z,11.80
2018-10-11T23:00:31.789Z,11.78
2018-10-11T23:03:07.692Z,11.86
2018-10-11T23:05:43.546Z,11.99
2018-10-11T23:08:19.304Z,11.96
2018-10-11T23:10:55.777Z,12.16
2018-10-11T23:13:31.557Z,12.09
2018-10-11T23:16:07.608Z,12.10
2018-10-11T23:18:43.341Z,12.03
2018-10-11T23:21:19.248Z,12.06
2018-10-11T23:23:55.125Z,12.09
2018-10-11T23:26:31.070Z,12.11
2018-10-11T23:29:07.039Z,12.12
2018-10-11T23:31:42.893Z,12.01
2018-10-11T23:34:18.877Z,12.22
2018-10-11T23:36:54.805Z,12.11
2018-10-11T23:39:33.811Z,12.20
2018-10-11T23:42:09.695Z,12.11
2018-10-11T23:44:45.544Z,12.07
2018-10-11T23:47:21.417Z,11.86
2018-10-11T23:49:57.419Z,11.86
2018-10-11T23:52:33.422Z,11.50
2018-10-11T23:55:10.065Z,11.39
2018-10-11T23:57:45.837Z,11.37
